Time;durP1;ratioP1;P1;durP2;ratioP2;P2;SDS_P1;SDS_P2;PMS_P1;PMS_P2;Temp;Humidity;BMP_temperature;BMP_pressure;BME280_temperature;BME280_humidity;BME280_pressure;Samples;Min_cycle;Max_cycle;Signal;HPM_P1;HPM_P2
2022/05/05 00:00:29;;;;;;;17.02;8.40;;;9.60;87.20;;;;;;5072150;28;20111;-73
2022/05/05 00:02:57;;;;;;;13.15;7.88;;;9.60;87.20;;;;;;5086090;28;20341;-73
2022/05/05 00:05:25;;;;;;;11.50;7.97;;;9.60;87.10;;;;;;5098566;28;20043;-72
2022/05/05 00:07:53;;;;;;;16.60;8.70;;;9.60;87.20;;;;;;5052492;28;20052;-73
2022/05/05 00:15:54;;;;;;;19.15;10.18;;;9.70;87.20;;;;;;5094543;28;20047;-74
2022/05/05 00:18:21;;;;;;;16.35;10.15;;;9.70;87.10;;;;;;5095841;28;20044;-73
2022/05/05 00:20:49;;;;;;;17.45;10.70;;;9.70;87.20;;;;;;5077964;28;20045;-74
2022/05/05 00:23:16;;;;;;;17.63;9.15;;;9.60;87.20;;;;;;5058691;28;20075;-74
2022/05/05 00:25:45;;;;;;;14.75;9.32;;;9.60;87.20;;;;;;5080622;28;20477;-74
2022/05/05 00:28:12;;;;;;;20.05;9.88;;;9.60;87.20;;;;;;5076369;28;20040;-74
2022/05/05 00:30:40;;;;;;;15.48;9.48;;;9.60;87.20;;;;;;5061102;28;20050;-74
2022/05/05 00:33:08;;;;;;;20.70;10.05;;;9.60;87.40;;;;;;5071348;28;20052;-74
2022/05/05 00:35:36;;;;;;;20.70;10.20;;;9.60;87.40;;;;;;5099468;28;20036;-74
2022/05/05 00:38:04;;;;;;;16.20;10.15;;;9.50;87.30;;;;;;5072390;28;20051;-74
2022/05/05 00:40:32;;;;;;;17.48;9.75;;;9.50;87.30;;;;;;5090427;28;20040;-74
2022/05/05 00:43:00;;;;;;;13.40;8.95;;;9.40;87.40;;;;;;5087003;28;20504;-74
2022/05/05 00:45:27;;;;;;;21.52;10.02;;;9.30;87.50;;;;;;5075201;28;20064;-74
2022/05/05 00:48:09;;;;;;;15.70;8.55;;;9.30;87.60;;;;;;5086359;28;20040;-74
2022/05/05 00:50:37;;;;;;;14.77;8.38;;;9.40;87.60;;;;;;5080444;28;20052;-75
2022/05/05 00:53:06;;;;;;;18.10;8.93;;;9.40;87.60;;;;;;5075163;28;20064;-73
2022/05/05 00:55:39;;;;;;;13.85;8.18;;;9.40;87.60;;;;;;5075325;28;20055;-73
2022/05/05 00:58:07;;;;;;;16.55;8.07;;;9.40;87.60;;;;;;5075652;28;20485;-73
2022/05/05 01:00:36;;;;;;;13.98;7.88;;;9.40;87.50;;;;;;5103154;28;20045;-74
2022/05/05 01:03:04;;;;;;;18.45;8.48;;;9.40;87.60;;;;;;5076902;28;20052;-74
2022/05/05 01:05:32;;;;;;;10.23;8.00;;;9.40;87.60;;;;;;5083682;28;20048;-73
2022/05/05 01:08:02;;;;;;;13.40;8.50;;;9.40;87.60;;;;;;5090736;28;20610;-73
2022/05/05 01:10:29;;;;;;;17.85;8.48;;;9.40;87.60;;;;;;5080854;28;20481;-73
2022/05/05 01:12:57;;;;;;;14.55;8.30;;;9.40;87.60;;;;;;5077279;28;20036;-74
2022/05/05 01:15:25;;;;;;;13.18;7.97;;;9.40;87.60;;;;;;5066152;28;20049;-74
2022/05/05 01:17:52;;;;;;;12.25;7.45;;;9.40;87.60;;;;;;5056655;28;20064;-73
2022/05/05 01:20:23;;;;;;;18.98;7.97;;;9.40;87.60;;;;;;5054896;28;20061;-73
2022/05/05 01:22:51;;;;;;;14.68;7.95;;;9.40;87.60;;;;;;5072088;28;20053;-73
2022/05/05 01:28:14;;;;;;;17.35;7.88;;;9.40;87.60;;;;;;5054902;28;20045;-73
2022/05/05 01:30:44;;;;;;;10.77;7.35;;;9.40;87.60;;;;;;5054765;28;20196;-74
2022/05/05 01:33:16;;;;;;;11.50;7.28;;;9.40;87.60;;;;;;5054774;28;20036;-74
2022/05/05 01:35:47;;;;;;;11.73;7.78;;;9.40;87.60;;;;;;5039089;28;20060;-74
2022/05/05 01:38:25;;;;;;;17.23;7.50;;;9.40;87.60;;;;;;5068235;28;20056;-74
2022/05/05 01:40:53;;;;;;;14.50;7.25;;;9.40;87.60;;;;;;5055092;28;20601;-74
2022/05/05 01:43:23;;;;;;;11.63;7.60;;;9.40;87.60;;;;;;5058351;28;20056;-74
2022/05/05 01:45:51;;;;;;;13.65;7.15;;;9.50;87.60;;;;;;5073057;28;20044;-75
2022/05/05 01:48:18;;;;;;;13.77;7.93;;;9.50;87.60;;;;;;5053955;28;20414;-74
2022/05/05 01:50:48;;;;;;;12.63;7.70;;;9.50;87.70;;;;;;5057430;28;20053;-74
2022/05/05 01:53:16;;;;;;;11.73;7.93;;;9.50;87.60;;;;;;5053931;28;20517;-74
2022/05/05 01:55:44;;;;;;;12.52;7.78;;;9.50;87.60;;;;;;5066504;28;20056;-74
2022/05/05 01:58:11;;;;;;;17.00;7.93;;;9.50;87.60;;;;;;5072258;28;20040;-75
2022/05/05 02:00:39;;;;;;;16.50;7.72;;;9.50;87.60;;;;;;5038282;28;20163;-74
2022/05/05 02:03:12;;;;;;;12.40;7.65;;;9.60;87.60;;;;;;5069825;28;20040;-73
2022/05/05 02:05:41;;;;;;;13.35;8.35;;;9.50;87.60;;;;;;5072233;28;20056;-73
2022/05/05 02:08:10;;;;;;;15.32;7.80;;;9.60;87.60;;;;;;5068499;28;20040;-73
2022/05/05 02:10:38;;;;;;;15.43;8.15;;;9.50;87.60;;;;;;5058566;28;20056;-73
2022/05/05 02:13:07;;;;;;;18.35;7.88;;;9.50;87.60;;;;;;5053603;28;20056;-73
2022/05/05 02:15:34;;;;;;;13.07;7.97;;;9.50;87.60;;;;;;5056668;28;20053;-73
2022/05/05 02:18:10;;;;;;;15.88;8.70;;;9.50;87.60;;;;;;5054213;28;20479;-73
2022/05/05 02:20:39;;;;;;;16.35;8.73;;;9.60;87.60;;;;;;5047878;28;20052;-73
2022/05/05 02:23:08;;;;;;;12.63;8.35;;;9.50;87.60;;;;;;5042864;28;20040;-73
2022/05/05 02:25:36;;;;;;;14.25;8.35;;;9.60;87.60;;;;;;5053823;28;20486;-73
2022/05/05 02:28:05;;;;;;;11.88;7.65;;;9.50;87.60;;;;;;5039377;28;20597;-72
2022/05/05 02:30:32;;;;;;;18.67;8.15;;;9.60;87.60;;;;;;5054528;28;20049;-73
2022/05/05 02:33:00;;;;;;;12.50;7.65;;;9.60;87.60;;;;;;5068520;28;20044;-73
2022/05/05 02:35:28;;;;;;;15.05;7.57;;;9.60;87.60;;;;;;5053966;28;20522;-73
2022/05/05 02:40:41;;;;;;;13.68;7.60;;;9.50;87.60;;;;;;5065110;28;20048;-73
2022/05/05 02:43:09;;;;;;;10.52;7.40;;;9.60;87.60;;;;;;5055562;28;20494;-73
2022/05/05 02:45:37;;;;;;;11.73;7.40;;;9.60;87.50;;;;;;5063488;28;20048;-73
2022/05/05 02:48:05;;;;;;;14.00;6.95;;;9.60;87.50;;;;;;5053124;28;20474;-73
2022/05/05 02:50:33;;;;;;;16.80;8.00;;;9.60;87.50;;;;;;5056008;28;20044;-73
2022/05/05 02:54:47;;;;;;;14.25;7.53;;;9.60;87.60;;;;;;5063548;28;20040;-73
2022/05/05 02:55:55;;;;;;;15.38;7.22;;;9.60;87.50;;;;;;5053478;28;20052;-73
2022/05/05 02:58:22;;;;;;;16.73;7.88;;;9.60;87.50;;;;;;5035215;28;20049;-73
2022/05/05 03:00:50;;;;;;;18.27;7.47;;;9.60;87.50;;;;;;5037671;28;20045;-73
2022/05/05 03:03:18;;;;;;;13.23;7.32;;;9.60;87.50;;;;;;5073167;28;20510;-73
2022/05/05 03:05:46;;;;;;;15.80;7.63;;;9.60;87.50;;;;;;5070916;28;20049;-73
2022/05/05 03:08:13;;;;;;;18.98;7.55;;;9.60;87.60;;;;;;5065906;28;20037;-74
2022/05/05 03:10:41;;;;;;;14.63;7.97;;;9.60;87.50;;;;;;5063507;28;20056;-73
2022/05/05 03:13:09;;;;;;;14.35;7.85;;;9.60;87.50;;;;;;5037763;28;20510;-73
2022/05/05 03:15:36;;;;;;;17.20;7.97;;;9.60;87.60;;;;;;5052800;28;20049;-73
2022/05/05 03:18:04;;;;;;;12.63;7.95;;;9.60;87.60;;;;;;5062977;28;20044;-74
2022/05/05 03:20:32;;;;;;;15.10;7.45;;;9.50;87.60;;;;;;5063466;28;20052;-74
2022/05/05 03:22:59;;;;;;;15.40;7.18;;;9.50;87.60;;;;;;5051903;28;20049;-73
2022/05/05 03:25:27;;;;;;;19.23;7.63;;;9.50;87.60;;;;;;5066324;28;20067;-74
2022/05/05 03:27:55;;;;;;;15.13;8.00;;;9.50;87.70;;;;;;5070707;28;20045;-73
2022/05/05 03:30:22;;;;;;;18.88;7.53;;;9.50;87.70;;;;;;5035856;28;20140;-73
2022/05/05 03:32:50;;;;;;;15.90;7.90;;;9.50;87.70;;;;;;5052541;28;20430;-74
2022/05/05 03:35:18;;;;;;;12.57;7.40;;;9.50;87.70;;;;;;5051627;28;20049;-73
2022/05/05 03:37:46;;;;;;;14.80;7.35;;;9.50;87.70;;;;;;5053564;28;20051;-74
2022/05/05 03:40:13;;;;;;;16.02;7.78;;;9.50;87.70;;;;;;5057253;28;20063;-74
2022/05/05 03:42:41;;;;;;;16.52;8.00;;;9.50;87.70;;;;;;5053643;28;20051;-73
2022/05/05 03:45:09;;;;;;;15.80;7.05;;;9.40;87.70;;;;;;5074156;28;20052;-73
2022/05/05 03:47:36;;;;;;;14.02;7.38;;;9.30;87.80;;;;;;5060941;28;20045;-73
2022/05/05 03:50:04;;;;;;;14.85;7.40;;;9.30;87.90;;;;;;5053368;28;20063;-73
2022/05/05 03:52:32;;;;;;;11.77;7.00;;;9.20;88.00;;;;;;5051533;28;20059;-73
2022/05/05 03:54:59;;;;;;;15.13;7.05;;;9.10;88.10;;;;;;5057486;28;20052;-73
2022/05/05 03:57:27;;;;;;;14.30;7.20;;;9.10;88.20;;;;;;5071381;28;20036;-74
2022/05/05 03:59:54;;;;;;;14.55;6.93;;;9.10;88.30;;;;;;5072275;28;20044;-73
2022/05/05 04:02:23;;;;;;;14.70;6.97;;;9.00;88.40;;;;;;5065319;28;20489;-73
2022/05/05 04:04:50;;;;;;;15.63;6.85;;;9.10;88.40;;;;;;5054031;28;20045;-74
2022/05/05 04:07:18;;;;;;;12.77;5.90;;;9.00;88.30;;;;;;5070045;28;20086;-73
2022/05/05 04:09:45;;;;;;;16.85;6.75;;;9.10;88.30;;;;;;5071639;28;20043;-73
2022/05/05 04:12:13;;;;;;;13.88;6.13;;;9.10;88.30;;;;;;5070880;28;20036;-73
2022/05/05 04:14:41;;;;;;;10.93;5.85;;;9.00;88.20;;;;;;5052287;28;20059;-73
2022/05/05 04:17:08;;;;;;;11.20;6.10;;;8.90;88.30;;;;;;5052701;28;20041;-73
2022/05/05 04:19:36;;;;;;;14.45;6.05;;;8.90;88.30;;;;;;5051034;28;20064;-74
2022/05/05 04:22:04;;;;;;;10.77;5.95;;;8.80;88.30;;;;;;5043817;28;20047;-74
2022/05/05 04:24:31;;;;;;;12.25;6.20;;;8.80;88.40;;;;;;5030318;28;20072;-73
2022/05/05 04:26:59;;;;;;;16.23;6.40;;;8.80;88.40;;;;;;5052049;28;20040;-74
2022/05/05 04:29:27;;;;;;;11.32;5.82;;;8.70;88.50;;;;;;5046242;28;20071;-73
2022/05/05 04:31:54;;;;;;;8.73;5.72;;;8.70;88.60;;;;;;5059847;28;20037;-74
2022/05/05 04:34:22;;;;;;;9.43;5.63;;;8.70;88.60;;;;;;5059123;28;20049;-74
2022/05/05 04:36:50;;;;;;;14.57;5.90;;;8.70;88.70;;;;;;5070230;28;20056;-74
2022/05/05 04:39:17;;;;;;;10.35;6.05;;;8.70;88.80;;;;;;5071721;28;20501;-73
2022/05/05 04:41:45;;;;;;;8.93;5.57;;;8.70;88.70;;;;;;5064239;28;20048;-74
2022/05/05 04:44:12;;;;;;;10.93;5.55;;;8.80;88.70;;;;;;5065789;28;20053;-74
2022/05/05 04:46:40;;;;;;;11.60;5.68;;;8.80;88.70;;;;;;5033878;28;20056;-73
2022/05/05 04:49:08;;;;;;;7.93;4.90;;;8.90;88.70;;;;;;5052833;28;20041;-73
2022/05/05 04:51:35;;;;;;;14.30;5.70;;;9.00;88.60;;;;;;5053606;28;20053;-74
2022/05/05 04:54:03;;;;;;;11.32;5.07;;;9.00;88.50;;;;;;5073504;28;20037;-74
2022/05/05 04:56:31;;;;;;;9.15;4.88;;;9.10;88.50;;;;;;5050613;28;20053;-75
2022/05/05 04:58:58;;;;;;;8.13;4.63;;;9.20;88.40;;;;;;5058239;28;20043;-74
2022/05/05 05:01:26;;;;;;;10.57;4.90;;;9.20;88.30;;;;;;5073213;28;20036;-74
2022/05/05 05:03:54;;;;;;;9.73;4.85;;;9.30;88.30;;;;;;5054926;28;20060;-74
2022/05/05 05:06:21;;;;;;;8.90;5.30;;;9.30;88.20;;;;;;5061800;28;20048;-74
2022/05/05 05:08:49;;;;;;;11.52;5.53;;;9.30;88.20;;;;;;5064721;28;20040;-74
2022/05/05 05:11:16;;;;;;;10.00;5.05;;;9.40;88.10;;;;;;5064521;28;20056;-74
2022/05/05 05:13:44;;;;;;;8.85;5.10;;;9.50;88.00;;;;;;5052964;28;20044;-74
2022/05/05 05:16:11;;;;;;;10.20;5.65;;;9.50;87.90;;;;;;5061259;28;20049;-74
2022/05/05 05:18:59;;;;;;;9.20;4.85;;;9.60;87.90;;;;;;5040336;28;20057;-75
2022/05/05 05:21:27;;;;;;;15.80;5.20;;;9.70;87.80;;;;;;5091863;28;20405;-74
2022/05/05 05:23:54;;;;;;;10.45;5.03;;;9.70;87.70;;;;;;5085880;28;20037;-74
2022/05/05 05:26:22;;;;;;;13.48;5.47;;;9.70;87.70;;;;;;5064557;28;20057;-74
2022/05/05 05:28:49;;;;;;;12.60;5.38;;;9.80;87.70;;;;;;5075975;28;20041;-74
2022/05/05 05:31:17;;;;;;;10.68;5.07;;;9.80;87.70;;;;;;5064093;28;20083;-74
2022/05/05 05:33:45;;;;;;;10.65;5.47;;;9.80;87.60;;;;;;5065617;28;20475;-74
2022/05/05 05:36:12;;;;;;;9.35;5.10;;;9.90;87.60;;;;;;5052956;28;20041;-74
2022/05/05 05:38:40;;;;;;;8.98;5.47;;;10.00;87.50;;;;;;5035329;28;20398;-74
2022/05/05 05:41:10;;;;;;;13.75;5.32;;;10.00;87.40;;;;;;5059549;28;20060;-74
2022/05/05 05:43:39;;;;;;;9.27;5.13;;;10.10;87.40;;;;;;5072296;28;20540;-74
2022/05/05 05:46:06;;;;;;;9.77;5.20;;;10.10;87.30;;;;;;5070746;28;20048;-74
2022/05/05 05:48:35;;;;;;;11.73;5.90;;;10.20;87.20;;;;;;5064056;28;20386;-74
2022/05/05 05:51:02;;;;;;;10.38;5.32;;;10.20;87.10;;;;;;5079608;28;20520;-74
2022/05/05 05:53:30;;;;;;;15.35;6.20;;;10.30;87.10;;;;;;5080486;28;20485;-74
2022/05/05 05:55:58;;;;;;;11.75;6.13;;;10.30;87.00;;;;;;5055597;28;20051;-74
2022/05/05 05:58:25;;;;;;;12.50;6.85;;;10.30;86.90;;;;;;5080852;28;20045;-74
2022/05/05 06:00:53;;;;;;;16.75;7.28;;;10.30;86.90;;;;;;5082789;28;20489;-74
2022/05/05 06:06:07;;;;;;;14.32;7.57;;;10.30;86.80;;;;;;5065164;28;20043;-73
2022/05/05 06:08:35;;;;;;;15.60;7.20;;;10.30;86.80;;;;;;5071830;28;20075;-73
2022/05/05 06:11:02;;;;;;;14.73;7.15;;;10.30;86.70;;;;;;5055510;28;20059;-73
2022/05/05 06:13:30;;;;;;;17.40;6.93;;;10.40;86.70;;;;;;5061479;28;20052;-73
2022/05/05 06:15:58;;;;;;;11.85;6.05;;;10.40;86.70;;;;;;5057602;28;20056;-73
2022/05/05 06:18:26;;;;;;;11.82;5.90;;;10.50;86.60;;;;;;5067692;28;20052;-72
2022/05/05 06:20:54;;;;;;;9.60;5.60;;;10.50;86.50;;;;;;5089182;28;20383;-72
2022/05/05 06:23:22;;;;;;;8.77;5.60;;;10.50;86.40;;;;;;5070879;28;20064;-72
2022/05/05 06:25:50;;;;;;;10.25;5.53;;;10.60;86.30;;;;;;5047475;28;20040;-72
2022/05/05 06:28:17;;;;;;;8.38;5.68;;;10.70;86.20;;;;;;5059440;28;20204;-80
2022/05/05 06:30:45;;;;;;;15.00;5.72;;;10.70;86.10;;;;;;5054117;28;20041;-73
2022/05/05 06:33:13;;;;;;;11.57;5.72;;;10.80;86.00;;;;;;5066294;28;20045;-73
2022/05/05 06:35:40;;;;;;;9.70;5.78;;;10.90;85.90;;;;;;5066669;28;20048;-73
2022/05/05 06:38:08;;;;;;;8.38;5.55;;;11.00;85.80;;;;;;5053013;28;20204;-73
2022/05/05 06:40:35;;;;;;;11.65;6.50;;;11.10;85.60;;;;;;5053076;28;20064;-73
2022/05/05 06:43:03;;;;;;;12.98;7.03;;;11.20;85.40;;;;;;5044436;28;20041;-73
2022/05/05 06:45:31;;;;;;;15.98;7.78;;;11.30;85.40;;;;;;5056075;28;20039;-73
2022/05/05 06:47:59;;;;;;;14.25;7.70;;;11.30;85.30;;;;;;5058713;28;20409;-73
2022/05/05 06:50:27;;;;;;;16.38;7.78;;;11.40;85.20;;;;;;5055482;28;20052;-72
2022/05/05 06:52:54;;;;;;;10.40;7.00;;;11.50;85.10;;;;;;5060476;28;20410;-73
2022/05/05 06:55:22;;;;;;;11.60;6.65;;;11.50;84.80;;;;;;5047472;28;20068;-73
2022/05/05 06:57:49;;;;;;;13.52;7.47;;;11.50;84.90;;;;;;5063281;28;20052;-72
2022/05/05 07:00:17;;;;;;;14.95;6.57;;;11.60;84.70;;;;;;5053245;28;20047;-73
2022/05/05 07:02:45;;;;;;;15.15;7.05;;;11.70;84.70;;;;;;5057518;28;20049;-73
2022/05/05 07:05:27;;;;;;;16.73;6.55;;;11.70;84.60;;;;;;5057775;28;20041;-73
2022/05/05 07:07:55;;;;;;;14.60;7.25;;;11.80;84.50;;;;;;5057881;28;20048;-73
2022/05/05 07:13:09;;;;;;;14.60;6.13;;;11.90;84.10;;;;;;5051669;28;20057;-73
2022/05/05 07:15:37;;;;;;;6.40;4.40;;;11.90;84.10;;;;;;5053034;28;20059;-73
2022/05/05 07:18:05;;;;;;;9.55;5.07;;;12.00;83.90;;;;;;5054776;28;20507;-73
2022/05/05 07:20:33;;;;;;;9.98;5.70;;;12.20;83.50;;;;;;5070063;28;20493;-73
2022/05/05 07:23:00;;;;;;;9.80;5.07;;;12.20;83.10;;;;;;5072804;28;20049;-73
2022/05/05 07:25:28;;;;;;;12.05;6.88;;;12.10;82.80;;;;;;5059469;28;20040;-73
2022/05/05 07:27:56;;;;;;;12.18;7.07;;;12.10;82.80;;;;;;5056750;28;20052;-73
2022/05/05 07:30:24;;;;;;;13.55;7.47;;;12.10;82.90;;;;;;5054280;28;20048;-73
2022/05/05 07:32:51;;;;;;;18.25;8.02;;;12.20;82.90;;;;;;5070447;28;20036;-73
2022/05/05 07:35:19;;;;;;;12.48;8.20;;;12.20;82.90;;;;;;5067843;28;20064;-73
2022/05/05 07:37:46;;;;;;;20.90;8.43;;;12.30;83.00;;;;;;5036388;28;20055;-73
2022/05/05 07:40:14;;;;;;;12.77;7.55;;;12.50;83.00;;;;;;5050790;28;20048;-73
2022/05/05 07:42:42;;;;;;;11.32;7.47;;;12.60;82.50;;;;;;5050748;28;20045;-73
2022/05/05 07:45:10;;;;;;;12.23;7.95;;;12.60;82.20;;;;;;5049961;28;20053;-73
2022/05/05 07:47:38;;;;;;;14.30;7.40;;;12.60;81.90;;;;;;5034262;28;20414;-73
2022/05/05 07:50:07;;;;;;;16.85;8.25;;;12.70;81.70;;;;;;5051701;28;20052;-73
2022/05/05 07:52:35;;;;;;;12.77;7.30;;;12.70;81.90;;;;;;5034575;28;20056;-73
2022/05/05 07:55:03;;;;;;;9.10;7.07;;;12.70;81.90;;;;;;5034548;28;20049;-74
2022/05/05 07:57:30;;;;;;;9.18;6.95;;;12.80;81.80;;;;;;5052264;28;20045;-73
2022/05/05 07:59:58;;;;;;;12.90;6.13;;;12.80;81.80;;;;;;5052350;28;20064;-73
2022/05/05 08:02:25;;;;;;;9.43;6.53;;;12.80;81.50;;;;;;5034114;28;20059;-73
2022/05/05 08:04:53;;;;;;;12.07;5.88;;;12.80;81.10;;;;;;5052561;28;20041;-74
2022/05/05 08:07:22;;;;;;;11.25;5.80;;;12.90;81.00;;;;;;5034417;28;20037;-73
2022/05/05 08:09:49;;;;;;;12.40;5.75;;;13.00;80.60;;;;;;5052147;28;20045;-72
2022/05/05 08:12:32;;;;;;;10.02;5.55;;;13.20;80.50;;;;;;5034290;28;20491;-73
2022/05/05 08:15:04;;;;;;;10.00;5.10;;;13.30;80.20;;;;;;5051337;28;20057;-73
2022/05/05 08:17:33;;;;;;;15.48;5.72;;;13.60;79.70;;;;;;5060585;28;20053;-72
2022/05/05 08:20:02;;;;;;;6.63;5.22;;;13.80;79.00;;;;;;5071220;28;20048;-73
2022/05/05 08:22:30;;;;;;;7.25;5.25;;;13.90;78.60;;;;;;5071978;28;20060;-73
2022/05/05 08:30:30;;;;;;;10.15;5.00;;;14.50;76.30;;;;;;5071537;28;20071;-73
2022/05/05 08:32:58;;;;;;;7.65;5.53;;;14.60;76.00;;;;;;5071826;28;20048;-73
2022/05/05 08:35:27;;;;;;;8.77;4.93;;;14.70;75.70;;;;;;5071691;28;20045;-73
2022/05/05 08:37:55;;;;;;;8.13;5.38;;;14.80;75.40;;;;;;5071614;28;20048;-73
2022/05/05 08:40:25;;;;;;;10.95;6.30;;;15.00;75.10;;;;;;5071573;28;20033;-73
2022/05/05 08:42:53;;;;;;;11.68;7.63;;;15.30;74.40;;;;;;5070370;28;20386;-73
2022/05/05 08:45:21;;;;;;;15.15;8.52;;;15.30;72.70;;;;;;5071505;28;20049;-73
2022/05/05 08:47:53;;;;;;;12.25;8.15;;;15.30;72.60;;;;;;5071745;28;20127;-72
2022/05/05 08:50:23;;;;;;;20.65;8.38;;;15.30;72.20;;;;;;5071570;28;20048;-73
2022/05/05 08:52:51;;;;;;;18.65;10.77;;;15.30;72.30;;;;;;5071857;28;20060;-73
2022/05/05 08:55:20;;;;;;;17.17;10.60;;;15.30;72.30;;;;;;5072338;28;20044;-72
2022/05/05 08:57:48;;;;;;;20.42;11.38;;;15.30;72.20;;;;;;5075593;28;20115;-73
2022/05/05 09:00:16;;;;;;;20.65;12.75;;;15.30;71.30;;;;;;5075161;28;20072;-73
2022/05/05 09:02:44;;;;;;;25.58;14.73;;;15.20;70.90;;;;;;5075701;28;20052;-73
2022/05/05 09:05:12;;;;;;;26.23;14.50;;;15.20;70.90;;;;;;5075362;28;20048;-73
2022/05/05 09:07:52;;;;;;;25.38;14.93;;;15.30;70.60;;;;;;5074296;28;20056;-72
2022/05/05 09:10:21;;;;;;;24.10;14.25;;;15.30;70.40;;;;;;5075092;28;20498;-73
2022/05/05 09:12:59;;;;;;;26.90;14.55;;;15.50;70.40;;;;;;5074132;28;20060;-74
2022/05/05 09:15:35;;;;;;;30.50;14.10;;;15.60;69.20;;;;;;5074076;28;20521;-73
2022/05/05 09:18:12;;;;;;;23.80;13.02;;;15.60;68.60;;;;;;5062910;28;20052;-73
2022/05/05 09:20:41;;;;;;;19.88;11.75;;;15.40;68.60;;;;;;5060185;28;20053;-73
2022/05/05 09:23:36;;;;;;;21.25;11.52;;;15.30;69.30;;;;;;5055799;28;20053;-73
2022/05/05 09:26:05;;;;;;;16.63;9.70;;;15.40;69.60;;;;;;5061903;28;20405;-73
2022/05/05 09:28:35;;;;;;;21.00;10.65;;;15.50;69.80;;;;;;5050437;28;20490;-73
2022/05/05 09:31:06;;;;;;;17.73;10.60;;;15.50;70.00;;;;;;5021693;28;20063;-73
2022/05/05 09:33:34;;;;;;;22.45;10.57;;;15.60;70.00;;;;;;5039367;28;20053;-74
2022/05/05 09:36:07;;;;;;;19.02;10.95;;;15.60;70.10;;;;;;5042559;28;20056;-73
2022/05/05 09:38:55;;;;;;;19.63;11.20;;;15.70;70.10;;;;;;5053558;28;20045;-74
2022/05/05 09:41:34;;;;;;;21.13;11.20;;;15.70;69.70;;;;;;5061591;28;20048;-74
2022/05/05 09:44:21;;;;;;;24.40;12.15;;;15.70;70.10;;;;;;5072772;28;20048;-74
2022/05/05 09:46:49;;;;;;;21.33;12.50;;;15.60;69.80;;;;;;5063166;28;20136;-74
2022/05/05 09:49:18;;;;;;;20.30;10.93;;;15.60;69.70;;;;;;5074496;28;20055;-73
2022/05/05 09:57:41;;;;;;;17.83;10.60;;;15.80;69.20;;;;;;5073547;28;20060;-73
2022/05/05 10:05:52;;;;;;;19.65;11.25;;;15.90;68.00;;;;;;5063375;28;20037;-74
2022/05/05 10:08:27;;;;;;;24.42;11.73;;;15.90;68.10;;;;;;5072257;28;20524;-73
2022/05/05 10:10:55;;;;;;;24.65;11.77;;;15.80;68.10;;;;;;5053394;28;20052;-75
2022/05/05 10:13:24;;;;;;;106.65;18.02;;;15.80;68.40;;;;;;5054144;28;20051;-75
2022/05/05 10:15:52;;;;;;;21.00;11.18;;;15.80;68.70;;;;;;5052826;28;20052;-74
2022/05/05 10:18:28;;;;;;;74.75;17.08;;;15.80;68.70;;;;;;5054218;28;20383;-73
2022/05/05 10:20:57;;;;;;;22.27;13.95;;;16.00;68.60;;;;;;5054106;28;20037;-73
2022/05/05 10:23:49;;;;;;;28.42;14.25;;;16.30;67.60;;;;;;5058843;28;20040;-74
2022/05/05 10:26:25;;;;;;;15.85;11.93;;;16.50;67.30;;;;;;5065567;28;20048;-74
2022/05/05 10:28:53;;;;;;;33.65;11.80;;;16.80;66.90;;;;;;5067901;28;20481;-74
2022/05/05 10:31:30;;;;;;;19.67;11.30;;;17.00;66.00;;;;;;5064295;28;20048;-73
2022/05/05 10:34:02;;;;;;;16.23;10.00;;;17.30;65.00;;;;;;5056705;28;20052;-74
2022/05/05 10:36:30;;;;;;;16.42;9.40;;;17.60;65.20;;;;;;5057644;28;20041;-74
2022/05/05 10:38:58;;;;;;;14.25;8.70;;;17.80;64.20;;;;;;5070952;28;20045;-73
2022/05/05 10:41:39;;;;;;;17.83;8.27;;;17.80;63.50;;;;;;5068750;28;20041;-73
2022/05/05 10:44:16;;;;;;;14.20;8.57;;;17.70;63.60;;;;;;5053864;28;20041;-73
2022/05/05 10:47:02;;;;;;;12.77;6.45;;;17.80;63.90;;;;;;5053784;28;20053;-73
2022/05/05 10:49:41;;;;;;;10.48;6.18;;;18.00;63.60;;;;;;5057368;28;20049;-73
2022/05/05 10:52:12;;;;;;;9.85;5.80;;;18.20;62.00;;;;;;5068991;28;20487;-73
2022/05/05 10:54:42;;;;;;;5.80;4.68;;;18.30;61.60;;;;;;5059473;28;20053;-74
2022/05/05 10:57:24;;;;;;;6.78;5.10;;;18.40;62.30;;;;;;5053364;28;20037;-73
2022/05/05 11:00:22;;;;;;;207.35;20.58;;;18.70;61.10;;;;;;5053331;28;20048;-73
2022/05/05 11:03:01;;;;;;;6.55;4.20;;;18.80;59.70;;;;;;5053463;28;20057;-73
2022/05/05 11:05:36;;;;;;;6.90;4.43;;;19.00;59.30;;;;;;5053907;28;20049;-74
2022/05/05 11:08:10;;;;;;;8.60;5.00;;;19.10;58.40;;;;;;5064428;28;20049;-74
2022/05/05 11:10:48;;;;;;;8.82;4.90;;;19.00;58.80;;;;;;5057848;28;20289;-74
2022/05/05 11:13:42;;;;;;;8.32;4.75;;;19.20;59.30;;;;;;5060176;28;20044;-74
2022/05/05 11:22:25;;;;;;;9.05;4.55;;;19.20;57.00;;;;;;5059513;28;20493;-73
2022/05/05 11:24:53;;;;;;;10.57;5.18;;;19.30;57.30;;;;;;5041683;28;20393;-74
2022/05/05 11:27:24;;;;;;;80.28;9.55;;;19.50;57.90;;;;;;5070248;28;20045;-73
2022/05/05 11:29:54;;;;;;;12.40;5.10;;;19.80;57.60;;;;;;5063559;28;20086;-73
2022/05/05 11:32:32;;;;;;;9.52;4.75;;;19.90;56.50;;;;;;5070904;28;20048;-73
2022/05/05 11:35:01;;;;;;;4.63;3.97;;;19.80;56.50;;;;;;5059719;28;20410;-73
2022/05/05 11:37:30;;;;;;;9.50;4.20;;;19.50;55.90;;;;;;5064933;28;20049;-74
2022/05/05 11:40:02;;;;;;;9.93;3.75;;;19.20;56.50;;;;;;5052538;28;20045;-74
2022/05/05 11:44:14;;;;;;;14.27;4.22;;;19.10;55.80;;;;;;5067166;28;20047;-73
2022/05/05 11:45:18;;;;;;;8.45;4.10;;;19.20;55.80;;;;;;5072558;28;20401;-73
2022/05/05 11:47:46;;;;;;;7.55;4.38;;;19.50;56.20;;;;;;5057820;28;20063;-73
2022/05/05 11:50:14;;;;;;;6.38;4.63;;;19.90;55.90;;;;;;5067018;28;20070;-74
2022/05/05 11:52:42;;;;;;;7.18;4.85;;;20.10;54.40;;;;;;5063182;28;20059;-74
2022/05/05 11:55:11;;;;;;;10.93;5.63;;;20.30;53.80;;;;;;5071201;28;20053;-72
2022/05/05 11:57:40;;;;;;;11.75;5.43;;;20.40;53.20;;;;;;5070193;28;20049;-73
2022/05/05 12:02:58;;;;;;;6.75;5.60;;;20.30;53.10;;;;;;5049078;28;20036;-73
2022/05/05 12:05:26;;;;;;;8.48;6.00;;;20.10;52.90;;;;;;5063679;28;20406;-73
2022/05/05 12:07:55;;;;;;;59.28;9.98;;;19.90;52.90;;;;;;5055500;28;20411;-74
2022/05/05 12:10:33;;;;;;;16.45;6.15;;;20.00;53.70;;;;;;5069671;28;20434;-74
2022/05/05 12:13:02;;;;;;;11.20;6.65;;;20.10;53.60;;;;;;5065823;28;20045;-74
2022/05/05 12:15:33;;;;;;;12.02;7.97;;;20.20;53.50;;;;;;5048258;28;20049;-74
2022/05/05 12:18:00;;;;;;;34.33;10.10;;;20.00;53.90;;;;;;5064436;28;20516;-75
2022/05/05 12:20:30;;;;;;;14.90;8.88;;;19.80;54.20;;;;;;5085200;28;20055;-74
2022/05/05 12:23:00;;;;;;;13.27;9.02;;;19.80;55.10;;;;;;5091857;28;20044;-75
2022/05/05 12:25:29;;;;;;;9.00;6.75;;;20.20;55.10;;;;;;5092103;28;20055;-75
2022/05/05 12:27:59;;;;;;;9.88;7.07;;;20.60;54.60;;;;;;5092031;28;20048;-74
2022/05/05 12:30:49;;;;;;;5.45;3.88;;;21.00;53.40;;;;;;5091790;28;20047;-74
2022/05/05 12:33:17;;;;;;;10.00;5.30;;;21.40;52.50;;;;;;5072024;28;20060;-74
2022/05/05 12:35:46;;;;;;;12.20;5.13;;;21.70;51.10;;;;;;5081312;28;20044;-74
2022/05/05 12:38:16;;;;;;;11.55;5.70;;;21.80;50.60;;;;;;5070441;28;20040;-74
2022/05/05 12:40:46;;;;;;;9.68;5.10;;;21.90;50.60;;;;;;5080662;28;20051;-74
2022/05/05 12:43:17;;;;;;;9.48;5.75;;;22.20;50.90;;;;;;5092028;28;20059;-74
2022/05/05 12:45:46;;;;;;;9.10;4.03;;;22.60;50.20;;;;;;5091975;28;20048;-74
2022/05/05 12:48:14;;;;;;;6.65;3.40;;;22.90;48.50;;;;;;5088705;28;20057;-74
2022/05/05 12:50:44;;;;;;;6.18;4.55;;;23.10;47.10;;;;;;5082476;28;20044;-75
2022/05/05 13:01:47;;;;;;;12.15;5.60;;;23.50;46.10;;;;;;5088649;28;20063;-74
2022/05/05 13:04:18;;;;;;;9.02;5.82;;;23.60;45.80;;;;;;5088656;28;20044;-74
2022/05/05 13:06:53;;;;;;;9.48;4.03;;;23.50;44.50;;;;;;5091088;28;20381;-73
2022/05/05 13:09:21;;;;;;;10.63;6.55;;;23.50;43.20;;;;;;5091093;28;20229;-74
2022/05/05 13:11:52;;;;;;;12.15;7.57;;;23.60;44.00;;;;;;5088474;28;20044;-74
2022/05/05 13:14:23;;;;;;;11.07;6.93;;;23.80;44.50;;;;;;5085901;28;20048;-74
2022/05/05 13:16:52;;;;;;;60.42;9.60;;;24.00;43.90;;;;;;5077249;28;20048;-74
2022/05/05 13:19:20;;;;;;;7.63;5.72;;;24.20;44.10;;;;;;5071811;28;20494;-73
2022/05/05 13:21:48;;;;;;;10.50;5.30;;;24.30;44.00;;;;;;5086475;28;20036;-74
2022/05/05 13:24:16;;;;;;;58.22;8.38;;;24.30;43.20;;;;;;5090468;28;20044;-73
2022/05/05 13:26:46;;;;;;;6.57;5.05;;;24.30;42.90;;;;;;5074580;28;20048;-73
2022/05/05 13:29:14;;;;;;;8.90;5.00;;;24.20;42.30;;;;;;5072572;28;20056;-73
2022/05/05 13:31:42;;;;;;;21.20;5.40;;;23.90;42.60;;;;;;5071511;28;20055;-73
2022/05/05 13:34:10;;;;;;;23.58;5.38;;;23.50;43.40;;;;;;5071118;28;20057;-74
2022/05/05 13:36:38;;;;;;;6.07;4.00;;;23.30;43.90;;;;;;5071458;28;20485;-73
2022/05/05 13:39:14;;;;;;;5.72;3.95;;;23.30;43.70;;;;;;5071355;28;20044;-74
2022/05/05 13:41:43;;;;;;;7.38;3.58;;;22.90;43.50;;;;;;5070364;28;20037;-74
2022/05/05 13:44:10;;;;;;;6.30;3.17;;;23.00;44.40;;;;;;5074683;28;20053;-74